Date,TemperatureHighF,TemperatureAvgF,TemperatureLowF,DewpointHighF,DewpointAvgF,DewpointLowF,HumidityHigh,HumidityAvg,HumidityLow,PressureMaxIn,PressureMinIn,WindSpeedMaxMPH,WindSpeedAvgMPH,GustSpeedMaxMPH,PrecipitationSumIn
2013-1-1,58.0,53.1,50.5,53.3,47.8,-99.9,93,85,71,30.12,29.94,4,1,6,0.00
2013-1-2,54.8,46.6,40.9,52.8,44.4,36.0,95,92,82,30.15,29.89,15,7,15,0.23
2013-1-3,43.1,41.6,35.2,40.1,37.5,32.6,92,85,81,30.22,30.11,13,6,15,0.05
2013-1-4,50.7,40.0,30.2,36.5,32.7,28.9,95,77,48,30.29,30.17,4,0,6,0.00
2013-1-5,46.5,38.3,29.5,36.5,29.9,24.5,83,72,52,30.37,30.23,7,2,9,0.00
2013-1-6,49.1,44.9,38.5,44.7,40.4,34.1,95,84,71,30.26,30.06,5,0,0,0.06
2013-1-7,48.4,44.7,37.5,44.6,39.7,34.8,95,83,71,30.42,30.10,18,9,0,0.00
2013-1-8,56.9,49.6,41.8,54.6,46.5,37.9,94,89,83,30.43,30.34,13,5,0,0.00
2013-1-9,61.1,52.0,44.9,56.0,49.7,43.6,95,92,78,30.41,30.32,4,1,5,0.00
2013-1-10,56.3,52.5,47.5,54.6,46.7,39.9,95,81,63,30.49,30.36,20,8,21,0.00
2013-1-11,63.5,57.3,48.7,61.7,54.7,45.0,94,91,82,30.42,30.14,16,5,16,0.10
2013-1-12,67.4,59.9,56.1,65.6,58.0,54.1,95,93,90,30.16,30.08,6,1,8,0.01
2013-1-13,64.4,59.4,55.4,62.0,57.1,53.1,94,92,91,30.16,30.09,7,2,8,0.01
2013-1-14,74.3,63.9,58.9,66.9,61.2,57.3,95,91,75,30.19,30.09,6,1,7,0.00
2013-1-15,66.0,57.4,52.7,64.4,55.7,50.7,95,94,92,30.18,30.06,13,5,14,0.19
2013-1-16,72.5,63.2,55.6,68.1,60.3,53.4,95,91,79,30.06,29.95,6,1,7,0.01
2013-1-17,71.2,56.9,42.1,66.2,54.9,40.5,95,93,82,29.98,29.79,23,8,24,0.28
2013-1-18,45.4,41.1,37.6,41.1,32.4,-99.9,96,76,58,30.51,29.88,12,-14,19,0.00
2013-1-19,56.2,45.1,32.6,49.8,36.9,-99.9,95,81,62,30.47,30.16,9,-22,9,0.00
2013-1-20,62.7,53.1,45.2,49.8,47.1,40.3,96,81,55,30.16,29.97,2,0,4,0.00
2013-1-21,60.5,51.6,42.1,52.3,44.8,36.7,87,78,64,30.05,29.86,6,1,8,0.00
2013-1-22,52.7,40.2,31.3,42.0,21.0,11.6,71,47,28,30.25,29.89,8,2,13,0.00
2013-1-23,40.2,32.5,27.1,29.5,15.2,8.0,74,50,32,30.35,30.12,9,2,15,0.00
2013-1-24,49.7,37.3,27.2,40.3,24.4,10.1,77,60,43,30.49,29.96,14,7,23,0.00
2013-1-25,36.5,31.6,26.3,34.1,25.0,10.9,95,77,50,30.48,30.06,9,4,12,0.18
2013-1-26,36.7,33.2,29.2,35.1,31.2,27.9,95,92,89,30.35,30.08,1,0,2,0.00
2013-1-27,40.4,35.9,30.5,31.0,29.5,28.0,94,78,61,30.54,30.36,18,5,21,0.00
2013-1-28,58.7,44.8,36.0,57.0,42.0,31.0,95,90,82,30.49,30.23,0,0,0,0.00
2013-1-29,68.4,58.0,51.4,60.9,55.5,49.6,95,92,68,30.23,30.11,0,0,2,0.00
2013-1-30,63.1,59.5,52.2,60.7,57.4,50.8,95,93,88,30.13,29.64,20,5,23,0.00
2013-1-31,65.1,53.9,44.1,63.3,42.4,27.5,95,67,34,30.04,29.50,25,2,27,0.11